Time;durP1;ratioP1;P1;durP2;ratioP2;P2;SDS_P1;SDS_P2;PMS_P1;PMS_P2;Temp;Humidity;BMP_temperature;BMP_pressure;BME280_temperature;BME280_humidity;BME280_pressure;Samples;Min_cycle;Max_cycle;Signal;HPM_P1;HPM_P2
2021/09/11 00:00:05;;;;;;;;;49.00;40.40;30.90;28.30;;;;;;688962;28;6151;-78
2021/09/11 00:00:25;;;;;;;;;48.25;40.75;30.90;28.20;;;;;;689354;28;6320;-76
2021/09/11 00:00:46;;;;;;;;;47.25;39.00;30.90;28.20;;;;;;689239;28;5967;-78
2021/09/11 00:01:07;;;;;;;;;49.40;39.40;30.90;28.20;;;;;;689310;28;6042;-80
2021/09/11 00:01:27;;;;;;;;;50.75;41.00;30.90;28.20;;;;;;689332;28;6163;-78
2021/09/11 00:01:48;;;;;;;;;47.40;37.40;30.90;28.10;;;;;;688948;28;6189;-78
2021/09/11 00:02:09;;;;;;;;;51.00;42.50;30.90;28.20;;;;;;688753;28;6019;-78
2021/09/11 00:02:30;;;;;;;;;49.40;41.20;31.00;28.30;;;;;;691701;28;6081;-80
2021/09/11 00:02:51;;;;;;;;;48.80;39.40;30.90;28.10;;;;;;691852;28;6238;-81
2021/09/11 00:03:12;;;;;;;;;49.40;41.60;30.90;28.10;;;;;;691834;28;6043;-83
2021/09/11 00:03:33;;;;;;;;;47.00;39.50;30.90;28.10;;;;;;692354;28;6711;-83
2021/09/11 00:03:54;;;;;;;;;51.50;42.00;30.90;28.10;;;;;;694354;28;8050;-79
2021/09/11 00:04:15;;;;;;;;;46.00;39.00;30.90;28.10;;;;;;693646;28;5948;-79
2021/09/11 00:04:36;;;;;;;;;51.50;42.50;31.00;28.10;;;;;;689414;28;6075;-77
2021/09/11 00:04:57;;;;;;;;;46.60;39.60;31.00;28.10;;;;;;689200;28;6473;-77
2021/09/11 00:05:18;;;;;;;;;52.25;42.25;31.00;28.10;;;;;;689372;28;5955;-77
2021/09/11 00:05:39;;;;;;;;;50.50;40.00;30.90;28.00;;;;;;689268;28;6102;-77
2021/09/11 00:06:02;;;;;;;;;48.75;41.00;31.00;28.00;;;;;;689431;28;6060;-76
2021/09/11 00:06:23;;;;;;;;;49.50;40.50;31.00;28.10;;;;;;689194;28;6675;-76
2021/09/11 00:06:43;;;;;;;;;49.20;40.00;31.00;28.00;;;;;;689174;28;6138;-76
2021/09/11 00:07:04;;;;;;;;;47.00;38.25;31.00;27.90;;;;;;689117;28;6055;-79
2021/09/11 00:07:25;;;;;;;;;49.75;40.75;31.00;27.90;;;;;;689291;28;6015;-80
2021/09/11 00:07:46;;;;;;;;;53.00;43.00;31.00;27.90;;;;;;689274;28;6123;-81
2021/09/11 00:08:06;;;;;;;;;48.00;40.25;31.00;28.00;;;;;;689345;28;5964;-79
2021/09/11 00:08:27;;;;;;;;;48.50;40.75;31.00;27.90;;;;;;689189;28;5951;-81
2021/09/11 00:08:48;;;;;;;;;52.50;40.75;31.00;28.80;;;;;;685873;28;6082;-88
2021/09/11 00:09:09;;;;;;;;;49.00;41.20;31.00;28.00;;;;;;686466;28;6190;-88
2021/09/11 00:09:29;;;;;;;;;49.00;39.00;30.90;27.90;;;;;;686596;28;6092;-83
2021/09/11 00:09:50;;;;;;;;;48.25;41.00;30.90;27.90;;;;;;689021;28;5926;-78
2021/09/11 00:10:12;;;;;;;;;46.40;38.60;31.00;27.90;;;;;;689370;28;6153;-85
2021/09/11 00:10:33;;;;;;;;;50.00;41.00;30.90;27.90;;;;;;692492;28;6352;-82
2021/09/11 00:10:54;;;;;;;;;50.00;41.00;31.00;27.90;;;;;;694637;28;6030;-78
2021/09/11 00:11:17;;;;;;;;;50.50;41.25;31.00;27.90;;;;;;694678;28;6008;-84
2021/09/11 00:11:37;;;;;;;;;48.50;39.75;31.00;28.70;;;;;;692462;28;6645;-85
2021/09/11 00:11:58;;;;;;;;;50.60;41.60;31.00;27.90;;;;;;689393;28;6042;-84
2021/09/11 00:12:19;;;;;;;;;53.00;42.00;31.00;27.90;;;;;;689207;28;5921;-81
2021/09/11 00:12:41;;;;;;;;;47.00;40.00;31.00;27.90;;;;;;689390;28;6008;-80
2021/09/11 00:13:02;;;;;;;;;51.80;42.00;31.00;28.70;;;;;;689247;28;6473;-83
2021/09/11 00:13:22;;;;;;;;;51.25;42.00;31.00;27.80;;;;;;689203;28;6066;-86
2021/09/11 00:13:43;;;;;;;;;49.50;39.75;31.00;27.90;;;;;;689223;28;6533;-84
2021/09/11 00:14:04;;;;;;;;;52.75;43.00;31.00;27.80;;;;;;688705;28;6057;-84
2021/09/11 00:14:24;;;;;;;;;47.50;38.50;31.00;27.80;;;;;;689125;28;6297;-88
2021/09/11 00:14:45;;;;;;;;;46.60;38.00;31.00;27.80;;;;;;689195;28;6068;-84
2021/09/11 00:15:08;;;;;;;;;47.00;38.33;31.00;27.80;;;;;;689335;28;6030;-82
2021/09/11 00:15:32;;;;;;;;;53.00;41.50;31.00;27.70;;;;;;689390;28;6307;-85
2021/09/11 00:15:53;;;;;;;;;52.50;41.50;31.00;27.80;;;;;;689059;28;6405;-90
2021/09/11 00:16:14;;;;;;;;;48.00;39.00;31.00;27.70;;;;;;689282;28;6057;-90
2021/09/11 00:16:35;;;;;;;;;47.80;39.80;31.00;27.70;;;;;;689419;28;6195;-85
2021/09/11 00:16:56;;;;;;;;;46.75;40.25;31.00;27.80;;;;;;689370;28;6047;-86
2021/09/11 00:17:16;;;;;;;;;49.00;40.00;31.00;27.80;;;;;;689232;28;6234;-88
2021/09/11 00:17:38;;;;;;;;;47.20;41.00;31.00;27.80;;;;;;689365;28;6123;-82
2021/09/11 00:18:04;;;;;;;;;49.00;40.75;31.00;27.70;;;;;;689235;28;6664;-89
2021/09/11 00:18:25;;;;;;;;;48.60;40.00;31.00;27.70;;;;;;689127;28;6592;-83
2021/09/11 00:18:45;;;;;;;;;47.75;40.00;31.00;27.70;;;;;;689001;28;6152;-87
2021/09/11 00:19:06;;;;;;;;;51.75;42.50;31.00;27.80;;;;;;689406;28;6005;-84
2021/09/11 00:19:27;;;;;;;;;49.00;41.00;31.00;27.70;;;;;;689013;28;6061;-80
2021/09/11 00:19:47;;;;;;;;;44.25;37.25;31.00;27.70;;;;;;689079;28;6204;-83
2021/09/11 00:20:10;;;;;;;;;50.00;42.00;31.00;27.70;;;;;;688991;28;6297;-89
2021/09/11 00:20:31;;;;;;;;;47.20;39.80;31.00;27.80;;;;;;688761;28;6631;-82
2021/09/11 00:20:51;;;;;;;;;49.20;40.80;31.00;27.70;;;;;;689006;28;6227;-85
2021/09/11 00:21:13;;;;;;;;;50.67;40.00;31.00;27.70;;;;;;689134;28;5965;-86
2021/09/11 00:21:33;;;;;;;;;48.00;39.75;31.00;27.60;;;;;;689044;28;6617;-79
2021/09/11 00:21:55;;;;;;;;;45.00;38.00;31.00;27.70;;;;;;689218;28;5204;-81
2021/09/11 00:22:18;;;;;;;;;46.50;39.00;31.00;27.70;;;;;;689227;28;6212;-85
2021/09/11 00:22:40;;;;;;;;;45.00;37.40;31.00;27.60;;;;;;689096;28;6638;-84
2021/09/11 00:23:02;;;;;;;;;46.50;38.50;31.00;27.60;;;;;;689303;28;6291;-78
2021/09/11 00:23:23;;;;;;;;;48.20;40.40;31.00;27.60;;;;;;689305;28;6916;-86
2021/09/11 00:23:45;;;;;;;;;45.00;38.00;31.00;27.60;;;;;;689250;28;6058;-78
2021/09/11 00:24:06;;;;;;;;;47.50;40.00;31.00;28.50;;;;;;689332;28;6319;-81
2021/09/11 00:24:27;;;;;;;;;47.00;39.80;31.00;27.60;;;;;;689293;28;6742;-87
2021/09/11 00:24:47;;;;;;;;;43.00;37.33;31.00;27.60;;;;;;689307;28;6039;-84
2021/09/11 00:25:09;;;;;;;;;47.75;38.25;31.00;27.60;;;;;;689101;28;6865;-83
2021/09/11 00:25:30;;;;;;;;;45.25;38.25;31.00;27.60;;;;;;689271;28;6313;-84
2021/09/11 00:25:51;;;;;;;;;47.00;38.50;31.00;27.60;;;;;;689246;28;5981;-79
2021/09/11 00:26:11;;;;;;;;;47.75;39.25;31.00;27.60;;;;;;688855;28;6189;-85
2021/09/11 00:26:32;;;;;;;;;44.75;37.25;31.00;27.60;;;;;;689265;28;6726;-82
2021/09/11 00:26:55;;;;;;;;;42.60;36.20;31.00;27.60;;;;;;688871;28;6057;-80
2021/09/11 00:27:15;;;;;;;;;44.60;37.60;31.00;27.60;;;;;;688998;28;7878;-79
2021/09/11 00:27:36;;;;;;;;;43.80;37.40;31.00;27.60;;;;;;689206;28;6699;-82
2021/09/11 00:27:57;;;;;;;;;47.25;40.00;31.00;27.60;;;;;;689193;28;6799;-78
2021/09/11 00:28:17;;;;;;;;;47.00;40.00;31.00;27.60;;;;;;689126;28;6757;-84
2021/09/11 00:28:38;;;;;;;;;49.75;38.75;31.00;27.50;;;;;;689287;28;5988;-82
2021/09/11 00:28:59;;;;;;;;;46.25;39.00;31.00;27.60;;;;;;689265;28;6505;-79
2021/09/11 00:29:20;;;;;;;;;47.00;39.00;31.00;27.60;;;;;;689204;28;6239;-79
2021/09/11 00:29:40;;;;;;;;;49.25;39.50;31.00;27.50;;;;;;689268;28;5977;-82
2021/09/11 00:30:01;;;;;;;;;47.40;39.00;31.00;27.50;;;;;;689340;28;6117;-86
2021/09/11 00:30:23;;;;;;;;;49.50;41.00;31.00;27.50;;;;;;689284;28;6724;-83
2021/09/11 00:30:44;;;;;;;;;49.00;39.00;31.00;27.50;;;;;;689036;28;6913;-86
2021/09/11 00:31:04;;;;;;;;;46.75;39.50;31.00;28.30;;;;;;689354;28;6037;-82
2021/09/11 00:31:25;;;;;;;;;52.00;42.33;31.10;27.60;;;;;;689170;28;6153;-80
2021/09/11 00:31:46;;;;;;;;;47.75;40.00;31.10;27.50;;;;;;688993;28;6950;-82
2021/09/11 00:32:07;;;;;;;;;43.67;38.00;31.00;27.50;;;;;;689098;28;6232;-81
2021/09/11 00:32:27;;;;;;;;;44.00;35.80;31.10;27.60;;;;;;688755;28;7841;-82
2021/09/11 00:32:48;;;;;;;;;45.00;37.75;31.00;27.50;;;;;;689106;28;5981;-87
2021/09/11 00:33:09;;;;;;;;;48.00;38.75;31.00;27.50;;;;;;688587;28;6060;-88
2021/09/11 00:33:30;;;;;;;;;46.50;38.50;31.00;27.50;;;;;;689082;28;6079;-87
2021/09/11 00:33:52;;;;;;;;;46.25;38.50;31.00;27.50;;;;;;689071;28;6301;-80
2021/09/11 00:34:13;;;;;;;;;40.20;35.20;31.00;27.40;;;;;;689024;28;6375;-89
2021/09/11 00:34:33;;;;;;;;;41.80;35.80;31.00;27.50;;;;;;689129;28;6117;-86
2021/09/11 00:34:55;;;;;;;;;48.75;39.75;31.00;27.50;;;;;;689122;28;6073;-84
2021/09/11 00:35:17;;;;;;;;;47.20;39.20;31.00;27.50;;;;;;689254;28;6307;-85
2021/09/11 00:35:37;;;;;;;;;46.20;39.00;31.00;27.50;;;;;;689051;28;6745;-85
2021/09/11 00:35:58;;;;;;;;;43.00;38.00;31.00;27.50;;;;;;689254;28;6108;-85
2021/09/11 00:36:19;;;;;;;;;48.50;38.75;31.00;27.50;;;;;;688929;28;6024;-86
2021/09/11 00:36:40;;;;;;;;;45.00;38.50;31.10;27.50;;;;;;689023;28;6092;-81
2021/09/11 00:37:01;;;;;;;;;46.00;38.60;31.00;27.40;;;;;;688796;28;6450;-82
2021/09/11 00:37:22;;;;;;;;;45.00;38.60;31.00;27.40;;;;;;689059;28;6071;-78
2021/09/11 00:37:43;;;;;;;;;44.50;38.00;31.10;27.50;;;;;;686216;28;5991;-85
2021/09/11 00:38:04;;;;;;;;;44.75;37.50;31.10;27.50;;;;;;687071;28;7444;-84
2021/09/11 00:38:25;;;;;;;;;49.00;39.25;31.00;27.40;;;;;;689020;28;6067;-83
2021/09/11 00:38:45;;;;;;;;;44.00;37.40;31.00;27.40;;;;;;689210;28;6196;-87
2021/09/11 00:39:06;;;;;;;;;47.00;40.00;31.00;27.40;;;;;;689309;28;6057;-84
2021/09/11 00:39:27;;;;;;;;;47.50;39.25;31.00;27.30;;;;;;688823;28;6292;-88
2021/09/11 00:39:48;;;;;;;;;46.50;39.00;31.00;27.40;;;;;;689375;28;6169;-83
2021/09/11 00:40:11;;;;;;;;;47.50;40.00;31.00;27.40;;;;;;689190;28;6055;-85
2021/09/11 00:40:32;;;;;;;;;44.75;38.00;31.00;27.30;;;;;;689063;28;7367;-84
2021/09/11 00:40:52;;;;;;;;;48.25;40.50;31.00;27.30;;;;;;689355;28;6078;-79
2021/09/11 00:41:13;;;;;;;;;51.00;39.25;31.00;27.30;;;;;;689232;28;6060;-80
2021/09/11 00:41:34;;;;;;;;;47.25;39.50;31.00;27.30;;;;;;689178;28;6937;-80
2021/09/11 00:41:55;;;;;;;;;46.50;38.50;31.10;27.40;;;;;;689238;28;6712;-83
2021/09/11 00:42:15;;;;;;;;;45.00;38.00;31.00;27.30;;;;;;689280;28;6070;-83
2021/09/11 00:42:36;;;;;;;;;44.50;36.00;31.00;28.20;;;;;;689145;28;6019;-82
2021/09/11 00:42:57;;;;;;;;;45.60;38.60;31.10;27.40;;;;;;689070;28;6246;-79
2021/09/11 00:43:25;;;;;;;;;46.00;39.00;31.10;27.40;;;;;;689025;28;6564;-83
2021/09/11 00:43:48;;;;;;;;;46.50;39.25;31.10;27.40;;;;;;688916;28;6629;-85
2021/09/11 00:44:09;;;;;;;;;49.00;40.50;31.00;27.20;;;;;;689003;28;6460;-82
2021/09/11 00:44:30;;;;;;;;;46.75;39.25;31.10;27.30;;;;;;688715;28;6061;-81
2021/09/11 00:44:50;;;;;;;;;44.80;37.40;31.10;27.40;;;;;;689200;28;6047;-78
2021/09/11 00:45:14;;;;;;;;;50.00;41.25;31.10;27.30;;;;;;688888;28;5925;-80
2021/09/11 00:45:34;;;;;;;;;45.00;38.50;31.10;27.30;;;;;;689055;28;7446;-82
2021/09/11 00:45:56;;;;;;;;;44.00;38.00;31.10;27.30;;;;;;688989;28;6261;-84
2021/09/11 00:46:18;;;;;;;;;47.00;39.40;31.10;27.30;;;;;;688899;28;6933;-84
2021/09/11 00:46:38;;;;;;;;;42.00;36.00;31.10;27.30;;;;;;688992;28;6088;-80
2021/09/11 00:46:59;;;;;;;;;49.00;41.00;31.10;27.30;;;;;;689163;28;6084;-84
2021/09/11 00:47:20;;;;;;;;;48.00;40.50;31.10;27.30;;;;;;689036;28;6060;-85
2021/09/11 00:47:40;;;;;;;;;45.67;38.00;31.10;27.30;;;;;;689166;28;6112;-80
2021/09/11 00:48:01;;;;;;;;;45.80;38.80;31.10;27.30;;;;;;689204;28;6163;-80
2021/09/11 00:48:22;;;;;;;;;45.00;37.00;31.10;27.30;;;;;;689060;28;5926;-82
2021/09/11 00:48:44;;;;;;;;;47.00;38.00;31.10;27.20;;;;;;689219;28;5982;-83
2021/09/11 00:49:04;;;;;;;;;47.20;40.20;31.10;27.30;;;;;;689262;28;6062;-82
2021/09/11 00:49:25;;;;;;;;;45.50;38.25;31.10;27.30;;;;;;689248;28;6065;-82
2021/09/11 00:49:47;;;;;;;;;48.75;40.25;31.10;27.30;;;;;;689187;28;5938;-82
2021/09/11 00:50:10;;;;;;;;;47.00;39.00;31.10;27.30;;;;;;688967;28;6500;-86
2021/09/11 00:50:31;;;;;;;;;42.50;36.25;31.10;27.30;;;;;;689139;28;6309;-80
2021/09/11 00:50:52;;;;;;;;;46.75;39.50;31.10;27.30;;;;;;689299;28;6028;-85
2021/09/11 00:51:13;;;;;;;;;45.00;38.25;31.10;27.30;;;;;;689082;28;6029;-82
2021/09/11 00:51:34;;;;;;;;;46.20;39.60;31.10;27.30;;;;;;688832;28;6075;-88
2021/09/11 00:51:55;;;;;;;;;46.40;39.40;31.10;27.30;;;;;;688947;28;6099;-86
2021/09/11 00:52:16;;;;;;;;;44.00;38.00;31.10;27.30;;;;;;689002;28;5748;-85
2021/09/11 00:52:38;;;;;;;;;49.00;40.50;31.10;27.30;;;;;;689162;28;6084;-88
2021/09/11 00:52:59;;;;;;;;;45.80;38.80;31.10;27.30;;;;;;689074;28;6492;-81
2021/09/11 00:53:20;;;;;;;;;45.67;39.00;31.10;27.30;;;;;;689174;28;5936;-79
2021/09/11 00:53:42;;;;;;;;;47.00;38.50;31.10;27.30;;;;;;689007;28;6482;-85
2021/09/11 00:54:04;;;;;;;;;44.80;36.60;31.10;27.80;;;;;;689201;28;6109;-86
2021/09/11 00:54:24;;;;;;;;;45.00;37.50;31.10;27.30;;;;;;689079;28;6294;-85
2021/09/11 00:54:45;;;;;;;;;41.50;35.25;31.10;27.50;;;;;;689202;28;5975;-83
2021/09/11 00:55:07;;;;;;;;;37.50;34.00;31.10;27.50;;;;;;689315;28;6066;-85
2021/09/11 00:55:28;;;;;;;;;43.40;37.40;31.10;27.50;;;;;;689111;28;6885;-85
2021/09/11 00:55:49;;;;;;;;;47.33;40.33;31.10;27.50;;;;;;689524;28;5966;-81
2021/09/11 00:56:10;;;;;;;;;50.50;42.00;31.10;27.60;;;;;;689499;28;6733;-83
2021/09/11 00:56:33;;;;;;;;;49.00;40.40;31.10;27.60;;;;;;689400;28;6263;-83
2021/09/11 00:56:55;;;;;;;;;48.20;39.60;31.10;27.60;;;;;;689263;28;6478;-79
2021/09/11 00:57:17;;;;;;;;;49.25;40.00;31.10;27.60;;;;;;689164;28;6278;-84
2021/09/11 00:57:41;;;;;;;;;44.00;37.50;31.10;27.70;;;;;;689239;28;6038;-80
2021/09/11 00:58:02;;;;;;;;;49.75;40.75;31.10;27.80;;;;;;689032;28;7643;-78
2021/09/11 00:58:23;;;;;;;;;47.00;37.60;31.10;27.80;;;;;;689130;28;6073;-79
2021/09/11 00:58:46;;;;;;;;;48.50;39.75;31.10;27.80;;;;;;689190;28;5988;-78
2021/09/11 00:59:07;;;;;;;;;48.75;40.00;31.10;27.80;;;;;;689227;28;6536;-79
2021/09/11 00:59:27;;;;;;;;;47.40;40.60;31.10;27.80;;;;;;689435;28;6141;-79
2021/09/11 00:59:48;;;;;;;;;46.40;38.00;31.10;27.90;;;;;;689357;28;6178;-82
2021/09/11 01:00:10;;;;;;;;;46.50;38.00;31.10;27.90;;;;;;689432;28;6728;-82
2021/09/11 01:00:31;;;;;;;;;47.25;40.25;31.10;27.90;;;;;;689474;28;6351;-79
2021/09/11 01:00:51;;;;;;;;;46.00;39.00;31.10;27.90;;;;;;689545;28;6079;-81
2021/09/11 01:01:12;;;;;;;;;46.00;39.00;31.10;28.00;;;;;;689330;28;6157;-79
2021/09/11 01:01:33;;;;;;;;;47.00;41.00;31.10;27.90;;;;;;689384;28;6320;-81
2021/09/11 01:01:54;;;;;;;;;49.00;41.00;31.10;27.90;;;;;;689550;28;6075;-78
2021/09/11 01:02:14;;;;;;;;;49.75;41.75;31.10;27.90;;;;;;689337;28;5968;-82
2021/09/11 01:02:35;;;;;;;;;48.20;40.20;31.10;27.90;;;;;;688938;28;6117;-79
2021/09/11 01:02:56;;;;;;;;;47.75;40.00;31.10;27.90;;;;;;688999;28;6779;-80
2021/09/11 01:03:18;;;;;;;;;45.00;37.00;31.10;27.90;;;;;;689328;28;6710;-81
2021/09/11 01:03:39;;;;;;;;;43.80;37.20;31.10;27.90;;;;;;689210;28;6438;-78
2021/09/11 01:04:00;;;;;;;;;50.67;41.67;31.10;27.90;;;;;;689633;28;6041;-82
2021/09/11 01:04:20;;;;;;;;;49.25;41.75;31.10;27.90;;;;;;689536;28;6063;-78
2021/09/11 01:04:41;;;;;;;;;47.00;39.00;31.10;28.00;;;;;;689680;28;6170;-80
2021/09/11 01:05:05;;;;;;;;;45.75;38.50;31.10;27.90;;;;;;689700;28;5952;-80
2021/09/11 01:05:26;;;;;;;;;47.60;39.20;31.10;27.90;;;;;;689332;28;6340;-79
2021/09/11 01:05:47;;;;;;;;;48.00;39.00;31.10;28.00;;;;;;689600;28;6036;-78
2021/09/11 01:06:10;;;;;;;;;46.00;39.00;31.10;27.90;;;;;;689647;28;6461;-80
2021/09/11 01:06:32;;;;;;;;;49.40;41.80;31.10;27.90;;;;;;689425;28;6370;-78
2021/09/11 01:06:52;;;;;;;;;46.80;39.20;31.10;27.90;;;;;;689233;28;6125;-80
2021/09/11 01:07:13;;;;;;;;;45.00;39.00;31.10;28.80;;;;;;689535;28;6154;-78
2021/09/11 01:07:39;;;;;;;;;47.80;39.80;31.10;27.90;;;;;;689284;28;6174;-81
2021/09/11 01:07:59;;;;;;;;;45.00;39.00;31.10;27.90;;;;;;689220;28;6738;-83
2021/09/11 01:08:20;;;;;;;;;43.20;37.80;31.10;27.90;;;;;;689214;28;6028;-78
2021/09/11 01:08:42;;;;;;;;;45.50;38.50;31.00;27.80;;;;;;689271;28;5987;-80
2021/09/11 01:09:02;;;;;;;;;50.40;42.00;31.00;27.90;;;;;;689125;28;6343;-81
2021/09/11 01:09:23;;;;;;;;;49.00;40.00;31.10;27.80;;;;;;688716;28;6902;-80
2021/09/11 01:09:44;;;;;;;;;48.60;40.80;31.10;27.90;;;;;;688937;28;6029;-82
2021/09/11 01:10:05;;;;;;;;;43.20;37.20;31.10;27.90;;;;;;689088;28;6077;-82
2021/09/11 01:10:26;;;;;;;;;47.00;39.25;31.10;27.90;;;;;;688958;28;5945;-79
2021/09/11 01:10:47;;;;;;;;;45.00;38.25;31.10;27.90;;;;;;688871;28;6342;-81
2021/09/11 01:11:09;;;;;;;;;49.00;41.00;31.10;27.90;;;;;;689056;28;6020;-83
2021/09/11 01:11:30;;;;;;;;;50.80;41.00;31.10;27.90;;;;;;689167;28;6461;-82
2021/09/11 01:11:51;;;;;;;;;47.00;40.00;31.00;27.80;;;;;;689194;28;6056;-82
2021/09/11 01:12:12;;;;;;;;;48.00;40.50;31.00;27.80;;;;;;689025;28;6419;-86
2021/09/11 01:12:33;;;;;;;;;44.40;37.40;31.10;27.90;;;;;;689329;28;6132;-88
2021/09/11 01:12:54;;;;;;;;;50.00;41.00;31.00;27.80;;;;;;688956;28;6656;-84
2021/09/11 01:13:15;;;;;;;;;46.40;38.40;31.00;27.80;;;;;;689002;28;6041;-84
2021/09/11 01:13:37;;;;;;;;;47.20;38.60;31.00;27.80;;;;;;689184;28;6077;-83
2021/09/11 01:13:59;;;;;;;;;46.40;38.40;31.10;27.90;;;;;;689168;28;6679;-88
2021/09/11 01:14:19;;;;;;;;;43.60;37.00;31.00;27.80;;;;;;689065;28;5960;-86
2021/09/11 01:14:40;;;;;;;;;47.40;39.40;31.10;27.90;;;;;;689215;28;6996;-81
2021/09/11 01:15:04;;;;;;;;;44.50;36.50;31.10;27.80;;;;;;689237;28;6097;-81
2021/09/11 01:15:38;;;;;;;;;47.00;39.20;31.10;27.80;;;;;;688957;28;6499;-85
2021/09/11 01:15:59;;;;;;;;;46.25;39.25;31.10;27.80;;;;;;689115;28;6387;-81
2021/09/11 01:16:20;;;;;;;;;48.75;40.75;31.10;27.80;;;;;;689101;28;5953;-78
2021/09/11 01:16:40;;;;;;;;;47.25;40.00;31.10;27.80;;;;;;689303;28;6061;-83
2021/09/11 01:17:01;;;;;;;;;46.75;40.50;31.10;27.80;;;;;;689175;28;6254;-85
2021/09/11 01:17:22;;;;;;;;;50.00;42.67;31.10;27.80;;;;;;689078;28;6624;-86
2021/09/11 01:17:45;;;;;;;;;46.00;37.00;31.10;27.80;;;;;;688974;28;6039;-84
2021/09/11 01:18:07;;;;;;;;;41.50;35.00;31.10;27.80;;;;;;689073;28;6537;-85
2021/09/11 01:18:28;;;;;;;;;50.60;41.00;31.10;27.80;;;;;;689083;28;6864;-82
2021/09/11 01:18:49;;;;;;;;;46.20;38.80;31.10;27.80;;;;;;688962;28;6118;-82
2021/09/11 01:19:10;;;;;;;;;50.60;41.40;31.10;27.80;;;;;;689194;28;6085;-80
2021/09/11 01:19:30;;;;;;;;;48.50;40.50;31.10;27.80;;;;;;689227;28;6184;-78
2021/09/11 01:19:51;;;;;;;;;44.00;37.00;31.10;27.80;;;;;;689036;28;6296;-85
2021/09/11 01:20:12;;;;;;;;;49.00;39.67;31.10;27.70;;;;;;689057;28;6093;-82
2021/09/11 01:20:34;;;;;;;;;46.60;39.60;31.00;27.60;;;;;;689254;28;6465;-84
2021/09/11 01:20:56;;;;;;;;;43.60;37.60;31.10;27.80;;;;;;689122;28;6295;-81
2021/09/11 01:21:16;;;;;;;;;44.60;37.00;31.00;27.70;;;;;;688967;28;6889;-82
2021/09/11 01:21:37;;;;;;;;;45.00;38.00;31.10;27.70;;;;;;688352;28;6983;-82
2021/09/11 01:21:58;;;;;;;;;47.25;38.50;31.10;27.70;;;;;;688954;28;6088;-82
2021/09/11 01:22:18;;;;;;;;;48.33;39.67;31.10;27.80;;;;;;688305;28;6293;-83
2021/09/11 01:22:39;;;;;;;;;47.25;39.25;31.10;27.70;;;;;;688924;28;6959;-83
2021/09/11 01:23:00;;;;;;;;;46.60;39.00;31.00;27.70;;;;;;689012;28;6896;-79
2021/09/11 01:23:22;;;;;;;;;40.00;35.00;31.10;27.70;;;;;;689372;28;6970;-81
2021/09/11 01:23:43;;;;;;;;;45.00;37.75;31.10;27.60;;;;;;688490;28;6537;-84
2021/09/11 01:24:04;;;;;;;;;45.00;38.75;31.10;27.80;;;;;;688977;28;6069;-81
2021/09/11 01:24:24;;;;;;;;;45.00;37.25;31.10;27.70;;;;;;688854;28;6257;-79
2021/09/11 01:24:57;;;;;;;;;41.75;36.50;31.10;27.60;;;;;;688901;28;5986;-78
2021/09/11 01:25:18;;;;;;;;;42.20;35.60;31.10;27.70;;;;;;688713;28;6773;-78
2021/09/11 01:25:38;;;;;;;;;49.00;39.00;31.10;27.70;;;;;;689129;28;6091;-82
2021/09/11 01:25:59;;;;;;;;;46.40;38.40;31.10;27.60;;;;;;689151;28;6714;-80
2021/09/11 01:26:20;;;;;;;;;47.00;40.00;31.10;27.60;;;;;;688926;28;7052;-78
2021/09/11 01:26:41;;;;;;;;;47.00;39.00;31.10;27.60;;;;;;689116;28;6631;-81
2021/09/11 01:27:01;;;;;;;;;46.00;38.60;31.10;27.70;;;;;;689266;28;6105;-82
2021/09/11 01:27:23;;;;;;;;;48.80;39.80;31.10;27.50;;;;;;689264;28;6079;-79
2021/09/11 01:27:44;;;;;;;;;47.25;39.00;31.10;27.60;;;;;;689056;28;6627;-78
2021/09/11 01:28:07;;;;;;;;;45.00;39.00;31.10;27.60;;;;;;689108;28;6443;-78
2021/09/11 01:28:29;;;;;;;;;49.00;40.00;31.10;27.60;;;;;;689150;28;6748;-85
2021/09/11 01:28:49;;;;;;;;;45.00;38.20;31.10;27.60;;;;;;689185;28;6277;-84
2021/09/11 01:29:11;;;;;;;;;50.00;40.00;31.10;27.60;;;;;;689031;28;5973;-79
2021/09/11 01:29:31;;;;;;;;;47.00;39.25;31.00;27.60;;;;;;689137;28;6834;-77
2021/09/11 01:29:56;;;;;;;;;45.00;39.00;31.00;27.50;;;;;;689135;28;5179;-84
2021/09/11 01:30:19;;;;;;;;;44.00;37.60;31.10;27.50;;;;;;688997;28;6527;-80
2021/09/11 01:30:40;;;;;;;;;46.60;39.00;31.10;27.50;;;;;;688813;28;7695;-78
2021/09/11 01:31:01;;;;;;;;;44.75;37.25;31.10;27.50;;;;;;689211;28;5151;-86
2021/09/11 01:31:22;;;;;;;;;46.40;39.20;31.10;27.50;;;;;;689284;28;6737;-80
2021/09/11 01:31:42;;;;;;;;;45.50;37.50;31.10;27.50;;;;;;689067;28;6261;-85
2021/09/11 01:32:03;;;;;;;;;44.25;38.25;31.00;27.40;;;;;;689049;28;5953;-80
2021/09/11 01:32:25;;;;;;;;;45.40;38.20;31.10;27.60;;;;;;688970;28;6286;-80
2021/09/11 01:32:47;;;;;;;;;47.75;38.75;31.10;27.60;;;;;;689013;28;6457;-80
2021/09/11 01:33:08;;;;;;;;;45.50;39.00;31.00;27.60;;;;;;688770;28;6688;-88
2021/09/11 01:33:29;;;;;;;;;40.80;36.40;31.00;27.40;;;;;;688951;28;6118;-80
2021/09/11 01:33:50;;;;;;;;;48.00;40.00;31.00;27.50;;;;;;688988;28;5969;-85
2021/09/11 01:34:10;;;;;;;;;44.75;38.00;31.00;27.50;;;;;;688803;28;5938;-82
2021/09/11 01:34:31;;;;;;;;;46.00;39.00;31.00;27.60;;;;;;688974;28;6108;-84
2021/09/11 01:34:52;;;;;;;;;49.40;40.60;31.00;27.50;;;;;;688963;28;7002;-82
2021/09/11 01:35:13;;;;;;;;;45.00;37.50;31.10;27.50;;;;;;688890;28;5940;-82
2021/09/11 01:35:34;;;;;;;;;47.50;40.00;31.00;27.40;;;;;;689212;28;6309;-79
2021/09/11 01:35:55;;;;;;;;;48.25;41.00;31.10;27.50;;;;;;689197;28;6815;-82
2021/09/11 01:36:16;;;;;;;;;44.75;37.25;31.10;27.50;;;;;;688933;28;6598;-85
2021/09/11 01:36:37;;;;;;;;;43.50;37.00;31.00;27.40;;;;;;689123;28;6389;-78
2021/09/11 01:36:57;;;;;;;;;46.80;37.40;31.10;27.60;;;;;;689061;28;6661;-78
2021/09/11 01:37:19;;;;;;;;;44.00;37.50;31.00;27.50;;;;;;688943;28;6058;-83
2021/09/11 01:37:41;;;;;;;;;43.00;37.00;31.00;27.50;;;;;;688979;28;6303;-78
2021/09/11 01:38:02;;;;;;;;;44.25;37.25;31.00;27.50;;;;;;689083;28;6669;-83
2021/09/11 01:38:23;;;;;;;;;48.80;40.00;31.00;27.60;;;;;;689002;28;6049;-83
2021/09/11 01:38:43;;;;;;;;;43.25;35.25;31.00;27.60;;;;;;689035;28;5963;-84
2021/09/11 01:39:04;;;;;;;;;46.25;39.50;31.10;27.60;;;;;;689258;28;5973;-82
2021/09/11 01:39:25;;;;;;;;;49.00;39.00;31.00;27.50;;;;;;689271;28;5965;-79
2021/09/11 01:39:49;;;;;;;;;47.80;38.00;31.10;27.50;;;;;;688985;28;6231;-84
2021/09/11 01:40:11;;;;;;;;;48.60;41.00;31.00;27.60;;;;;;688801;28;6613;-78
2021/09/11 01:40:32;;;;;;;;;46.60;39.40;31.00;27.50;;;;;;689051;28;6069;-78
2021/09/11 01:40:52;;;;;;;;;48.75;39.25;31.10;28.40;;;;;;689050;28;5921;-84
2021/09/11 01:41:13;;;;;;;;;47.00;39.00;31.00;27.50;;;;;;689057;28;6131;-84
2021/09/11 01:41:34;;;;;;;;;46.80;38.40;31.00;27.50;;;;;;689300;28;7726;-84
2021/09/11 01:41:54;;;;;;;;;46.50;39.50;31.00;27.50;;;;;;689110;28;6066;-82
2021/09/11 01:42:19;;;;;;;;;46.40;39.00;31.00;27.50;;;;;;689094;28;6059;-84
2021/09/11 01:42:40;;;;;;;;;45.00;38.80;31.00;27.50;;;;;;688887;28;7394;-78
2021/09/11 01:43:01;;;;;;;;;44.75;38.00;31.00;27.60;;;;;;689338;28;6005;-78
2021/09/11 01:43:34;;;;;;;;;44.40;36.20;31.00;27.50;;;;;;688968;28;6104;-78
2021/09/11 01:43:54;;;;;;;;;46.50;37.50;31.00;27.60;;;;;;688794;28;6767;-82
2021/09/11 01:44:15;;;;;;;;;45.75;38.50;31.00;27.60;;;;;;688995;28;6056;-80
2021/09/11 01:44:36;;;;;;;;;47.00;39.00;31.00;27.60;;;;;;689194;28;6963;-80
2021/09/11 01:44:59;;;;;;;;;48.00;40.00;31.00;27.60;;;;;;688715;28;6071;-78
2021/09/11 01:45:21;;;;;;;;;44.00;36.00;31.00;27.50;;;;;;688743;28;6277;-78
2021/09/11 01:45:42;;;;;;;;;41.25;34.75;31.00;27.40;;;;;;688641;28;6515;-77
2021/09/11 01:46:06;;;;;;;;;43.50;38.00;31.00;27.50;;;;;;689167;28;6193;-79
2021/09/11 01:46:27;;;;;;;;;44.00;38.00;31.00;27.50;;;;;;688834;28;6445;-82
2021/09/11 01:46:49;;;;;;;;;44.50;38.00;31.00;27.60;;;;;;688876;28;6197;-79
2021/09/11 01:47:10;;;;;;;;;44.40;37.80;31.00;27.60;;;;;;688879;28;6451;-78
2021/09/11 01:47:30;;;;;;;;;41.75;35.75;31.00;27.60;;;;;;689083;28;5974;-78
2021/09/11 01:47:52;;;;;;;;;42.60;37.60;31.00;27.50;;;;;;688901;28;6063;-78
2021/09/11 01:48:12;;;;;;;;;42.60;36.00;31.00;27.60;;;;;;688885;28;6094;-81
2021/09/11 01:48:33;;;;;;;;;44.75;36.00;31.00;27.50;;;;;;689096;28;5980;-84
2021/09/11 01:48:54;;;;;;;;;42.20;36.20;31.00;27.60;;;;;;688885;28;6782;-81
2021/09/11 01:49:14;;;;;;;;;41.75;35.25;31.00;27.60;;;;;;689035;28;6177;-81
2021/09/11 01:49:35;;;;;;;;;45.25;38.00;31.00;27.50;;;;;;689073;28;6285;-80
2021/09/11 01:49:56;;;;;;;;;43.00;37.00;31.00;27.50;;;;;;688885;28;6844;-80
2021/09/11 01:50:20;;;;;;;;;46.00;39.50;31.00;27.60;;;;;;688865;28;6019;-78
2021/09/11 01:50:40;;;;;;;;;43.40;37.00;31.00;27.60;;;;;;688760;28;6313;-78
2021/09/11 01:51:01;;;;;;;;;44.50;38.00;31.00;27.50;;;;;;688827;28;6150;-86